Time;durP1;ratioP1;P1;durP2;ratioP2;P2;SDS_P1;SDS_P2;PMS_P1;PMS_P2;Temp;Humidity;BMP_temperature;BMP_pressure;BME280_temperature;BME280_humidity;BME280_pressure;Samples;Min_cycle;Max_cycle;Signal;HPM_P1;HPM_P2
2023/12/01 00:00:40;;;;;;;25.90;12.50;;;0.40;98.00;;;;;;6270516;22;20008;-69
2023/12/01 00:03:26;;;;;;;20.17;11.70;;;0.40;97.90;;;;;;6247276;22;20476;-69
2023/12/01 00:06:12;;;;;;;22.10;11.38;;;0.40;97.90;;;;;;6269965;22;20004;-72
2023/12/01 00:08:58;;;;;;;19.77;11.45;;;0.40;97.90;;;;;;6270479;22;20094;-72
2023/12/01 00:11:45;;;;;;;15.77;9.73;;;0.40;97.80;;;;;;6270295;22;20012;-72
2023/12/01 00:14:31;;;;;;;16.38;9.50;;;0.40;97.80;;;;;;6270521;22;20429;-73
2023/12/01 00:17:17;;;;;;;16.08;8.32;;;0.40;97.70;;;;;;6270740;22;20050;-70
2023/12/01 00:20:04;;;;;;;16.05;9.55;;;0.40;97.90;;;;;;6269565;22;20070;-71
2023/12/01 00:22:51;;;;;;;16.52;9.30;;;0.40;97.70;;;;;;6268697;22;20065;-70
2023/12/01 00:25:37;;;;;;;16.33;8.68;;;0.40;97.70;;;;;;6271322;22;20094;-71
2023/12/01 00:28:24;;;;;;;15.82;9.02;;;0.40;97.60;;;;;;6270410;22;20069;-70
2023/12/01 00:31:10;;;;;;;17.95;9.43;;;0.40;97.60;;;;;;6270779;22;20008;-70
2023/12/01 00:33:56;;;;;;;16.67;10.40;;;0.40;97.60;;;;;;6270306;22;20464;-70
2023/12/01 00:36:42;;;;;;;16.83;9.68;;;0.40;97.50;;;;;;6270249;22;20010;-70
2023/12/01 00:39:28;;;;;;;17.73;9.52;;;0.40;97.50;;;;;;6270259;22;20015;-70
2023/12/01 00:42:14;;;;;;;13.63;8.68;;;0.30;97.50;;;;;;6269787;22;20398;-70
2023/12/01 00:45:01;;;;;;;14.07;9.40;;;0.30;97.40;;;;;;6269469;22;20050;-70
2023/12/01 00:47:47;;;;;;;19.25;10.52;;;0.40;97.40;;;;;;6271054;22;20310;-69
2023/12/01 00:50:33;;;;;;;17.67;10.07;;;0.40;97.40;;;;;;6270477;22;20020;-69
2023/12/01 00:53:19;;;;;;;18.63;9.90;;;0.40;97.40;;;;;;6269945;22;20384;-69
2023/12/01 00:56:05;;;;;;;15.35;8.98;;;0.30;97.30;;;;;;6270475;22;20092;-69
2023/12/01 00:58:51;;;;;;;15.30;8.68;;;0.30;97.30;;;;;;6269433;22;20015;-69
2023/12/01 01:01:37;;;;;;;16.55;9.73;;;0.30;97.30;;;;;;6269568;22;20012;-69
2023/12/01 01:04:23;;;;;;;16.98;9.13;;;0.40;97.30;;;;;;6270263;22;20008;-70
2023/12/01 01:07:09;;;;;;;13.70;8.32;;;0.30;97.20;;;;;;6269504;22;20080;-70
2023/12/01 01:09:55;;;;;;;16.13;9.40;;;0.30;97.20;;;;;;6268774;22;20011;-69
2023/12/01 01:12:41;;;;;;;14.85;9.25;;;0.30;97.20;;;;;;6270459;22;20026;-69
2023/12/01 01:15:27;;;;;;;15.75;9.02;;;0.20;97.10;;;;;;6273000;22;20402;-69
2023/12/01 01:18:13;;;;;;;17.85;10.00;;;0.20;97.10;;;;;;6270622;22;20012;-69
2023/12/01 01:20:59;;;;;;;26.23;14.73;;;0.20;97.20;;;;;;6272186;22;20007;-69
2023/12/01 01:23:45;;;;;;;21.73;12.43;;;0.20;97.20;;;;;;6271162;22;20019;-69
2023/12/01 01:26:31;;;;;;;20.88;11.98;;;0.20;97.10;;;;;;6272123;22;20004;-68
2023/12/01 01:29:17;;;;;;;17.80;11.18;;;0.10;97.10;;;;;;6272270;22;20462;-69
2023/12/01 01:32:03;;;;;;;20.35;10.77;;;0.10;97.10;;;;;;6272922;22;20011;-70
2023/12/01 01:34:50;;;;;;;16.02;10.00;;;0.10;97.10;;;;;;6269405;22;20008;-71
2023/12/01 01:37:36;;;;;;;20.98;11.20;;;0.00;97.10;;;;;;6271064;22;20007;-71
2023/12/01 01:40:21;;;;;;;16.92;9.52;;;0.00;97.10;;;;;;6271544;22;20016;-71
2023/12/01 01:43:07;;;;;;;18.80;10.05;;;0.00;97.30;;;;;;6270933;22;20015;-71
2023/12/01 01:46:05;;;;;;;12.95;8.70;;;0.00;97.20;;;;;;6271661;22;20006;-70
2023/12/01 01:48:51;;;;;;;15.95;9.45;;;0.00;97.20;;;;;;6272624;22;19999;-71
2023/12/01 01:51:38;;;;;;;16.90;9.13;;;0.00;97.10;;;;;;6249495;22;20012;-71
2023/12/01 01:54:25;;;;;;;16.75;10.55;;;0.00;97.10;;;;;;6272451;22;20073;-70
2023/12/01 01:57:11;;;;;;;17.95;9.68;;;0.10;97.20;;;;;;6269839;22;20440;-70
2023/12/01 01:59:57;;;;;;;16.42;9.70;;;0.00;97.20;;;;;;6271531;22;20083;-69
2023/12/01 02:02:44;;;;;;;23.73;10.23;;;0.00;97.20;;;;;;6271663;22;20090;-69
2023/12/01 02:05:33;;;;;;;16.85;9.95;;;-0.10;97.20;;;;;;6270586;22;20000;-71
2023/12/01 02:08:27;;;;;;;16.75;10.38;;;-0.10;97.20;;;;;;6270061;22;20016;-71
2023/12/01 02:11:13;;;;;;;18.10;9.77;;;-0.10;97.20;;;;;;6269413;22;20065;-69
2023/12/01 02:14:00;;;;;;;16.92;9.93;;;-0.10;97.20;;;;;;6272804;22;20015;-79
2023/12/01 02:16:45;;;;;;;18.25;9.75;;;-0.10;97.20;;;;;;6270434;22;20008;-78
2023/12/01 02:19:31;;;;;;;17.52;9.10;;;-0.10;97.20;;;;;;6269579;22;20043;-76
2023/12/01 02:22:17;;;;;;;20.98;9.00;;;-0.10;97.20;;;;;;6270305;22;20008;-77
2023/12/01 02:25:04;;;;;;;14.75;8.27;;;-0.10;97.20;;;;;;6268937;22;20061;-77
2023/12/01 02:27:49;;;;;;;16.60;10.05;;;-0.10;97.10;;;;;;6271263;22;20016;-78
2023/12/01 02:30:36;;;;;;;20.10;9.40;;;-0.10;97.10;;;;;;6273112;22;20008;-69
2023/12/01 02:33:23;;;;;;;20.38;10.20;;;-0.10;97.10;;;;;;6270023;22;20069;-69
2023/12/01 02:36:11;;;;;;;16.17;8.93;;;-0.10;97.10;;;;;;6269659;22;20008;-69
2023/12/01 02:38:57;;;;;;;14.38;7.97;;;-0.10;97.20;;;;;;6270183;22;20015;-69
2023/12/01 02:41:43;;;;;;;17.98;8.00;;;-0.10;97.20;;;;;;6247567;22;20073;-78
2023/12/01 02:44:29;;;;;;;15.15;8.68;;;-0.10;97.20;;;;;;6270959;22;20008;-77
2023/12/01 02:47:15;;;;;;;15.15;8.85;;;-0.10;97.10;;;;;;6269623;22;20012;-78
2023/12/01 02:50:01;;;;;;;16.50;9.63;;;-0.10;97.20;;;;;;6269764;22;20054;-78
2023/12/01 02:52:47;;;;;;;13.10;7.28;;;-0.20;97.10;;;;;;6270146;22;20016;-78
2023/12/01 02:55:33;;;;;;;14.73;8.85;;;-0.20;97.10;;;;;;6271803;22;20562;-76
2023/12/01 02:58:19;;;;;;;14.25;8.23;;;-0.20;97.10;;;;;;6249384;22;20062;-69
2023/12/01 03:01:05;;;;;;;16.10;9.32;;;-0.30;97.30;;;;;;6271205;22;20026;-69
2023/12/01 03:03:51;;;;;;;15.82;8.88;;;-0.30;97.10;;;;;;6271123;22;20007;-67
2023/12/01 03:06:37;;;;;;;12.90;8.13;;;-0.40;97.10;;;;;;6270082;22;20007;-69
2023/12/01 03:09:23;;;;;;;15.48;8.85;;;-0.40;97.10;;;;;;6271314;22;20337;-69
2023/12/01 03:12:09;;;;;;;17.23;9.18;;;-0.40;97.20;;;;;;6270680;22;20012;-68
2023/12/01 03:14:56;;;;;;;17.10;8.93;;;-0.50;97.00;;;;;;6270823;22;20011;-69
2023/12/01 03:17:42;;;;;;;14.45;7.97;;;-0.60;97.00;;;;;;6270783;22;20677;-69
2023/12/01 03:20:28;;;;;;;16.75;8.43;;;-0.60;96.90;;;;;;6269415;22;20087;-68
2023/12/01 03:23:14;;;;;;;14.75;7.78;;;-0.70;96.90;;;;;;6270817;22;20091;-68
2023/12/01 03:26:00;;;;;;;14.45;8.00;;;-0.70;96.90;;;;;;6269403;22;20448;-69
2023/12/01 03:28:46;;;;;;;13.75;7.65;;;-0.80;96.90;;;;;;6270922;22;20346;-68
2023/12/01 03:31:32;;;;;;;15.10;9.02;;;-0.80;96.90;;;;;;6270921;22;20008;-68
2023/12/01 03:34:18;;;;;;;17.85;9.48;;;-0.80;96.90;;;;;;6272095;22;20077;-68
2023/12/01 03:37:03;;;;;;;12.70;7.85;;;-0.80;96.90;;;;;;6269238;22;20004;-78
2023/12/01 03:39:49;;;;;;;13.98;7.85;;;-0.80;97.00;;;;;;6269474;22;20077;-77
2023/12/01 03:42:38;;;;;;;11.98;7.40;;;-0.80;97.00;;;;;;6270119;22;20000;-78
2023/12/01 03:45:24;;;;;;;14.30;8.15;;;-0.80;97.00;;;;;;6269525;22;20007;-78
2023/12/01 03:48:10;;;;;;;12.95;7.60;;;-0.80;97.00;;;;;;6271602;22;20463;-77
2023/12/01 03:50:55;;;;;;;15.27;8.27;;;-0.80;97.00;;;;;;6270268;22;20456;-78
2023/12/01 03:53:41;;;;;;;15.27;8.52;;;-0.80;97.00;;;;;;6272200;22;20409;-75
2023/12/01 03:56:28;;;;;;;13.57;7.95;;;-0.80;97.00;;;;;;6270193;22;20015;-76
2023/12/01 03:59:14;;;;;;;12.77;7.50;;;-0.80;97.00;;;;;;6249703;22;20018;-77
2023/12/01 04:02:00;;;;;;;14.23;8.05;;;-0.80;97.00;;;;;;6269682;22;20037;-76
2023/12/01 04:04:46;;;;;;;15.50;9.73;;;-0.70;97.00;;;;;;6271453;22;20544;-76
2023/12/01 04:07:33;;;;;;;17.10;9.63;;;-0.80;97.00;;;;;;6271509;22;20369;-77
2023/12/01 04:10:19;;;;;;;13.13;7.95;;;-0.80;97.00;;;;;;6270530;22;20035;-77
2023/12/01 04:13:07;;;;;;;13.80;7.90;;;-0.80;97.00;;;;;;6271855;22;20460;-76
2023/12/01 04:15:53;;;;;;;12.30;7.05;;;-0.80;97.00;;;;;;6269728;22;20015;-76
2023/12/01 04:18:39;;;;;;;11.68;6.93;;;-0.80;96.90;;;;;;6271263;22;20367;-75
2023/12/01 04:21:25;;;;;;;13.65;7.15;;;-0.80;96.80;;;;;;6247404;22;20008;-73
2023/12/01 04:24:11;;;;;;;11.55;6.93;;;-0.80;96.80;;;;;;6270813;22;20070;-69
2023/12/01 06:20:38;;;;;;;10.55;5.32;;;-1.50;96.90;;;;;;6268368;22;20026;-71
2023/12/01 06:23:24;;;;;;;10.95;5.88;;;-1.50;96.90;;;;;;6273066;22;20011;-71
2023/12/01 06:26:10;;;;;;;10.85;5.47;;;-1.50;96.90;;;;;;6271411;22;20016;-71
2023/12/01 06:28:56;;;;;;;10.55;5.15;;;-1.50;96.90;;;;;;6271986;22;20154;-68
2023/12/01 06:31:42;;;;;;;10.52;6.20;;;-1.50;96.90;;;;;;6270817;22;20018;-69
2023/12/01 06:34:28;;;;;;;12.25;5.97;;;-1.50;97.00;;;;;;6271689;22;20016;-69
2023/12/01 06:37:14;;;;;;;10.73;5.90;;;-1.50;97.00;;;;;;6271215;22;20011;-68
2023/12/01 06:40:00;;;;;;;10.82;5.97;;;-1.50;97.30;;;;;;6272320;22;20008;-67
2023/12/01 06:42:54;;;;;;;11.25;6.43;;;-1.50;97.10;;;;;;6271855;22;20076;-67
2023/12/01 06:45:41;;;;;;;11.07;6.70;;;-1.40;97.20;;;;;;6271317;22;20011;-71
2023/12/01 06:48:27;;;;;;;10.88;6.40;;;-1.40;97.20;;;;;;6271862;22;20011;-71
2023/12/01 06:51:14;;;;;;;9.75;6.22;;;-1.40;97.20;;;;;;6271645;22;20030;-70
2023/12/01 06:54:00;;;;;;;11.73;6.85;;;-1.40;97.30;;;;;;6272051;22;20020;-71
2023/12/01 06:56:46;;;;;;;10.38;6.50;;;-1.40;97.30;;;;;;6272256;22;20004;-68
2023/12/01 06:59:32;;;;;;;11.93;6.35;;;-1.40;97.30;;;;;;6271618;22;20091;-68
2023/12/01 07:02:17;;;;;;;12.65;7.15;;;-1.40;97.30;;;;;;6271052;22;20018;-67
2023/12/01 07:05:08;;;;;;;10.68;6.85;;;-1.30;97.30;;;;;;6270593;22;20008;-68
2023/12/01 07:07:54;;;;;;;11.10;7.07;;;-1.30;97.30;;;;;;6248945;22;20008;-68
2023/12/01 07:10:41;;;;;;;11.90;7.28;;;-1.30;97.30;;;;;;6272382;22;20528;-67
2023/12/01 07:13:29;;;;;;;12.70;7.60;;;-1.30;97.30;;;;;;6272969;22;20015;-67
2023/12/01 07:16:15;;;;;;;11.23;6.57;;;-1.30;97.40;;;;;;6271755;22;20008;-68
2023/12/01 07:19:01;;;;;;;13.82;7.57;;;-1.30;97.30;;;;;;6270567;22;20398;-71
2023/12/01 07:21:47;;;;;;;13.80;7.28;;;-1.40;97.30;;;;;;6270690;22;20118;-72
2023/12/01 07:24:33;;;;;;;12.15;7.47;;;-1.40;97.30;;;;;;6271180;22;20008;-72
2023/12/01 07:27:25;;;;;;;14.80;7.75;;;-1.40;97.20;;;;;;6271711;22;20018;-68
2023/12/01 07:30:16;;;;;;;14.25;7.65;;;-1.40;97.20;;;;;;6271968;22;20008;-68
2023/12/01 07:33:05;;;;;;;13.25;7.30;;;-1.50;97.20;;;;;;6271995;22;20049;-68
2023/12/01 07:35:51;;;;;;;12.60;7.32;;;-1.50;97.20;;;;;;6271828;22;20011;-69
2023/12/01 07:38:37;;;;;;;17.27;7.68;;;-1.50;97.10;;;;;;6269612;22;20003;-68
2023/12/01 07:41:23;;;;;;;16.20;6.95;;;-1.60;97.10;;;;;;6269806;22;20015;-68
2023/12/01 07:44:09;;;;;;;12.65;7.15;;;-1.60;97.20;;;;;;6270563;22;20042;-68
2023/12/01 07:46:55;;;;;;;12.15;7.15;;;-1.60;97.20;;;;;;6270642;22;20434;-68
2023/12/01 07:49:41;;;;;;;14.20;7.45;;;-1.60;97.10;;;;;;6269073;22;20531;-68
2023/12/01 07:52:27;;;;;;;13.52;8.38;;;-1.70;97.20;;;;;;6268622;22;20026;-68
2023/12/01 07:55:13;;;;;;;17.60;7.60;;;-1.70;97.30;;;;;;6270994;22;20019;-73
2023/12/01 07:57:59;;;;;;;15.18;8.20;;;-1.70;97.40;;;;;;6271587;22;20012;-75
2023/12/01 08:00:46;;;;;;;15.40;8.15;;;-1.80;97.30;;;;;;6269362;22;20008;-74
2023/12/01 08:03:32;;;;;;;16.10;8.65;;;-1.80;97.40;;;;;;6270546;22;20082;-75
2023/12/01 08:06:18;;;;;;;18.25;7.82;;;-1.80;97.50;;;;;;6270078;22;20431;-75
2023/12/01 08:09:04;;;;;;;14.55;8.75;;;-1.80;97.60;;;;;;6270128;22;20008;-73
2023/12/01 08:11:50;;;;;;;12.50;8.13;;;-1.80;97.70;;;;;;6269984;22;20046;-68
2023/12/01 08:14:35;;;;;;;14.30;8.60;;;-1.70;97.80;;;;;;6271105;22;20016;-68
2023/12/01 08:17:21;;;;;;;14.68;8.82;;;-1.80;97.80;;;;;;6270742;22;20012;-68
2023/12/01 08:20:08;;;;;;;16.92;8.40;;;-1.80;97.70;;;;;;6244652;22;20003;-68
2023/12/01 08:22:54;;;;;;;13.90;8.07;;;-1.80;97.80;;;;;;6270571;22;20007;-68
2023/12/01 08:25:40;;;;;;;15.63;8.32;;;-1.80;97.70;;;;;;6269624;22;20012;-68
2023/12/01 08:28:26;;;;;;;18.42;9.55;;;-1.70;97.70;;;;;;6269684;22;20045;-68
2023/12/01 08:31:12;;;;;;;14.25;8.07;;;-1.70;97.70;;;;;;6268703;22;20143;-68
2023/12/01 08:33:58;;;;;;;13.57;8.82;;;-1.70;97.70;;;;;;6270181;22;20365;-69
2023/12/01 08:36:44;;;;;;;14.60;8.55;;;-1.60;97.70;;;;;;6269761;22;20073;-68
2023/12/01 08:39:30;;;;;;;14.77;8.30;;;-1.60;97.80;;;;;;6271200;22;20031;-68
2023/12/01 08:42:18;;;;;;;13.30;8.52;;;-1.60;97.80;;;;;;6269454;22;20412;-68
2023/12/01 08:45:04;;;;;;;15.63;9.30;;;-1.50;97.80;;;;;;6271023;22;20016;-69
2023/12/01 08:47:51;;;;;;;13.25;8.63;;;-1.50;98.00;;;;;;6270181;22;20008;-69
2023/12/01 08:50:37;;;;;;;16.80;9.85;;;-1.50;97.80;;;;;;6271533;22;20019;-68
2023/12/01 08:53:23;;;;;;;18.55;10.77;;;-1.40;97.80;;;;;;6271235;22;20353;-68
2023/12/01 08:56:09;;;;;;;16.52;9.88;;;-1.40;97.70;;;;;;6271095;22;20146;-68
2023/12/01 08:58:55;;;;;;;16.00;9.90;;;-1.30;97.80;;;;;;6270816;22;20012;-69
2023/12/01 09:01:41;;;;;;;18.35;9.30;;;-1.30;97.80;;;;;;6269739;22;20027;-68
2023/12/01 09:04:27;;;;;;;12.48;7.97;;;-1.30;97.80;;;;;;6268981;22;20015;-69
2023/12/01 09:07:13;;;;;;;13.65;7.90;;;-1.20;97.90;;;;;;6270248;22;20008;-76
2023/12/01 09:09:59;;;;;;;14.45;8.82;;;-1.20;97.90;;;;;;6270008;22;20358;-76
2023/12/01 09:12:45;;;;;;;13.43;8.10;;;-1.10;97.90;;;;;;6269658;22;20510;-76
2023/12/01 09:15:31;;;;;;;17.98;9.05;;;-1.10;98.00;;;;;;6270855;22;20360;-76
2023/12/01 09:18:17;;;;;;;15.50;8.13;;;-1.10;98.10;;;;;;6269836;22;20358;-76
2023/12/01 09:21:03;;;;;;;15.75;8.05;;;-1.00;97.90;;;;;;6267360;22;20432;-78
2023/12/01 09:23:50;;;;;;;14.82;8.20;;;-1.00;97.90;;;;;;6268867;22;20012;-73
2023/12/01 09:26:36;;;;;;;16.73;9.50;;;-0.90;98.00;;;;;;6270574;22;20012;-79
2023/12/01 09:29:22;;;;;;;13.82;8.68;;;-0.90;97.90;;;;;;6270886;22;20214;-78
2023/12/01 09:32:08;;;;;;;15.13;8.00;;;-0.90;97.90;;;;;;6268914;22;20460;-78
2023/12/01 09:34:54;;;;;;;15.93;8.68;;;-0.80;97.90;;;;;;6271229;22;20315;-78
2023/12/01 09:37:40;;;;;;;15.30;8.68;;;-0.80;97.90;;;;;;6273114;22;20500;-78
2023/12/01 09:40:25;;;;;;;16.40;9.77;;;-0.80;97.90;;;;;;6272561;22;20449;-78
2023/12/01 09:43:13;;;;;;;16.50;8.80;;;-0.70;97.90;;;;;;6270318;22;20065;-78
2023/12/01 09:45:59;;;;;;;16.00;9.45;;;-0.70;97.90;;;;;;6247906;22;20012;-77
2023/12/01 09:48:46;;;;;;;15.48;9.57;;;-0.70;97.90;;;;;;6272207;22;20014;-78
2023/12/01 09:51:34;;;;;;;15.48;9.98;;;-0.60;97.90;;;;;;6271585;22;20337;-78
2023/12/01 09:54:20;;;;;;;16.65;10.10;;;-0.60;97.90;;;;;;6272244;22;20054;-78
2023/12/01 09:57:06;;;;;;;19.27;10.13;;;-0.50;97.90;;;;;;6248956;22;20012;-77
2023/12/01 09:59:53;;;;;;;19.27;9.18;;;-0.50;97.80;;;;;;6270327;22;20039;-74
2023/12/01 10:02:39;;;;;;;16.92;10.50;;;-0.50;97.80;;;;;;6272617;22;20012;-77
2023/12/01 11:21:49;;;;;;;16.92;10.57;;;0.60;98.00;;;;;;6299494;22;20377;-75
2023/12/01 11:24:44;;;;;;;18.33;10.60;;;0.60;98.00;;;;;;6298809;22;20007;-74
2023/12/01 11:27:32;;;;;;;20.80;10.23;;;0.70;98.20;;;;;;6300051;22;20009;-74
2023/12/01 11:30:18;;;;;;;16.67;8.88;;;0.70;98.00;;;;;;6300197;22;20094;-70
2023/12/01 11:33:06;;;;;;;14.20;8.98;;;0.70;98.00;;;;;;6299949;22;20023;-71
2023/12/01 11:36:22;;;;;;;17.77;11.27;;;0.80;98.10;;;;;;6298899;22;20007;-71
2023/12/01 11:39:20;;;;;;;15.55;10.02;;;0.90;98.00;;;;;;6298434;22;20344;-71
2023/12/01 11:42:06;;;;;;;17.33;9.52;;;0.90;98.00;;;;;;6297964;22;20114;-71
2023/12/01 11:44:52;;;;;;;15.52;9.43;;;1.00;98.00;;;;;;6301668;22;20007;-71
2023/12/01 11:47:38;;;;;;;19.67;11.10;;;1.00;98.00;;;;;;6301341;22;20019;-71
2023/12/01 11:50:24;;;;;;;18.27;11.20;;;1.00;98.00;;;;;;6277697;22;20535;-71
2023/12/01 11:53:13;;;;;;;18.50;10.77;;;1.10;98.00;;;;;;6298808;22;20019;-71
2023/12/01 11:56:00;;;;;;;17.05;10.90;;;1.20;97.90;;;;;;6300985;22;20374;-71
2023/12/01 11:58:46;;;;;;;17.25;9.57;;;1.20;97.90;;;;;;6299179;22;20188;-71
2023/12/01 12:01:33;;;;;;;15.70;9.27;;;1.20;97.80;;;;;;6298996;22;20010;-71
2023/12/01 12:04:19;;;;;;;13.43;8.82;;;1.20;97.80;;;;;;6294123;22;20007;-71
2023/12/01 12:07:06;;;;;;;14.65;8.43;;;1.20;97.70;;;;;;6269863;22;20492;-71
2023/12/01 12:09:56;;;;;;;17.55;9.75;;;1.20;97.60;;;;;;6246265;22;20072;-71
2023/12/01 12:12:42;;;;;;;23.33;11.00;;;1.20;97.60;;;;;;6267776;22;20031;-75
2023/12/01 12:15:30;;;;;;;15.90;9.15;;;1.10;97.70;;;;;;6243868;22;20004;-74
2023/12/01 12:18:16;;;;;;;16.60;8.95;;;1.20;97.70;;;;;;6267674;22;20410;-75
2023/12/01 12:21:03;;;;;;;16.02;8.18;;;1.10;97.60;;;;;;6268949;22;20007;-75
2023/12/01 12:23:50;;;;;;;18.63;8.65;;;1.10;97.60;;;;;;6268239;22;20019;-74
2023/12/01 12:26:39;;;;;;;15.50;8.38;;;1.10;97.50;;;;;;6244980;22;20489;-76
2023/12/01 12:29:25;;;;;;;16.23;8.57;;;1.10;97.50;;;;;;6268522;22;20482;-70
2023/12/01 12:32:11;;;;;;;15.95;8.65;;;1.10;97.40;;;;;;6270132;22;20061;-71
2023/12/01 12:34:57;;;;;;;11.60;7.20;;;1.10;97.40;;;;;;6268576;22;20011;-71
2023/12/01 12:37:43;;;;;;;14.20;8.35;;;1.20;97.40;;;;;;6265179;22;20043;-70
2023/12/01 12:40:34;;;;;;;14.57;8.95;;;1.20;97.30;;;;;;6247620;22;20036;-70
2023/12/01 12:43:20;;;;;;;15.02;8.88;;;1.20;97.40;;;;;;6268824;22;20019;-70
2023/12/01 12:46:06;;;;;;;15.15;9.43;;;1.20;97.40;;;;;;6267036;22;20012;-71
2023/12/01 12:49:09;;;;;;;14.48;8.57;;;1.30;97.40;;;;;;6267885;22;20043;-72
2023/12/01 12:51:58;;;;;;;18.23;9.63;;;1.30;97.40;;;;;;6268378;22;20366;-71
2023/12/01 12:54:44;;;;;;;18.67;9.82;;;1.40;97.50;;;;;;6244400;22;20510;-71
2023/12/01 12:57:30;;;;;;;19.92;10.00;;;1.40;97.30;;;;;;6246425;22;20011;-75
2023/12/01 13:00:16;;;;;;;13.85;8.45;;;1.40;97.40;;;;;;6269195;22;20467;-76
2023/12/01 13:03:03;;;;;;;17.23;9.15;;;1.50;97.40;;;;;;6268998;22;20018;-75
2023/12/01 13:05:49;;;;;;;14.25;8.82;;;1.50;97.40;;;;;;6267686;22;20069;-76
2023/12/01 13:08:37;;;;;;;17.48;9.68;;;1.50;97.20;;;;;;6267057;22;20374;-70
2023/12/01 13:11:24;;;;;;;15.27;9.23;;;1.40;97.10;;;;;;6270437;22;20012;-72
2023/12/01 13:14:12;;;;;;;13.48;8.77;;;1.50;97.20;;;;;;6270237;22;20019;-71
2023/12/01 13:16:58;;;;;;;16.52;9.90;;;1.50;97.10;;;;;;6270082;22;20439;-71
2023/12/01 13:19:44;;;;;;;16.67;9.90;;;1.50;97.00;;;;;;6270076;22;20008;-71
2023/12/01 13:22:30;;;;;;;19.17;10.20;;;1.40;96.70;;;;;;6247537;22;20378;-71
2023/12/01 13:25:16;;;;;;;17.90;9.30;;;1.30;96.50;;;;;;6270566;22;20161;-70
2023/12/01 13:28:02;;;;;;;21.25;10.20;;;1.20;96.60;;;;;;6269529;22;20008;-67
2023/12/01 13:30:48;;;;;;;19.88;9.43;;;1.20;96.70;;;;;;6269221;22;20012;-70
2023/12/01 13:33:34;;;;;;;20.17;10.00;;;1.20;96.70;;;;;;6270108;22;20018;-70
2023/12/01 13:36:20;;;;;;;17.65;9.68;;;1.10;96.80;;;;;;6267761;22;20094;-74
2023/12/01 13:39:06;;;;;;;18.33;10.20;;;1.10;96.70;;;;;;6269042;22;20016;-72
2023/12/01 13:41:52;;;;;;;18.90;10.13;;;1.20;96.80;;;;;;6270304;22;20011;-73
2023/12/01 13:44:38;;;;;;;17.60;10.00;;;1.20;96.70;;;;;;6271360;22;20039;-73
2023/12/01 13:47:24;;;;;;;18.02;9.15;;;1.20;96.70;;;;;;6270300;22;20102;-74
2023/12/01 13:50:10;;;;;;;18.35;9.05;;;1.20;96.60;;;;;;6269445;22;20062;-74
2023/12/01 13:52:57;;;;;;;18.65;9.65;;;1.20;96.70;;;;;;6271301;22;20092;-75
2023/12/01 13:55:42;;;;;;;18.98;9.43;;;1.20;96.60;;;;;;6269318;22;20016;-75
2023/12/01 13:58:28;;;;;;;19.00;10.35;;;1.10;96.40;;;;;;6267522;22;20091;-74
2023/12/01 14:01:15;;;;;;;20.77;10.90;;;1.10;96.40;;;;;;6269084;22;20016;-77
2023/12/01 14:04:01;;;;;;;16.80;10.25;;;1.10;96.50;;;;;;6267782;22;20015;-69
2023/12/01 14:06:47;;;;;;;19.02;9.73;;;1.10;96.50;;;;;;6269689;22;20043;-70
2023/12/01 14:09:34;;;;;;;18.90;10.77;;;1.00;96.20;;;;;;6269013;22;20016;-69
2023/12/01 14:12:20;;;;;;;20.60;10.57;;;1.00;96.20;;;;;;6268336;22;20004;-69
2023/12/01 14:15:07;;;;;;;19.52;10.00;;;0.90;96.20;;;;;;6269762;22;20045;-69
2023/12/01 14:17:52;;;;;;;19.20;10.30;;;0.80;96.20;;;;;;6270118;22;20030;-69
2023/12/01 14:20:39;;;;;;;17.35;8.43;;;0.80;96.20;;;;;;6271656;22;20366;-70
2023/12/01 14:23:25;;;;;;;17.08;10.02;;;0.80;96.20;;;;;;6267013;22;20028;-70
2023/12/01 14:26:11;;;;;;;20.85;10.77;;;0.70;96.30;;;;;;6267912;22;20391;-70
2023/12/01 14:28:58;;;;;;;23.25;11.25;;;0.60;96.10;;;;;;6268954;22;20065;-70
2023/12/01 14:31:44;;;;;;;20.13;11.13;;;0.40;96.10;;;;;;6270454;22;20525;-73
2023/12/01 14:34:30;;;;;;;21.13;11.52;;;0.40;96.10;;;;;;6246248;22;20081;-69
2023/12/01 14:37:16;;;;;;;22.70;11.75;;;0.30;96.00;;;;;;6270204;22;20354;-69
2023/12/01 14:40:02;;;;;;;22.75;12.02;;;0.20;96.00;;;;;;6269145;22;20459;-69
2023/12/01 14:42:48;;;;;;;21.75;10.48;;;0.00;96.10;;;;;;6270102;22;20633;-68
2023/12/01 14:45:34;;;;;;;22.95;12.45;;;0.00;96.20;;;;;;6269460;22;20018;-70
2023/12/01 14:48:20;;;;;;;18.92;10.70;;;0.00;96.30;;;;;;6268200;22;20007;-71
2023/12/01 14:51:07;;;;;;;26.58;13.45;;;0.00;96.20;;;;;;6270024;22;20008;-71
2023/12/01 14:53:53;;;;;;;26.20;12.57;;;-0.10;96.30;;;;;;6266814;22;20027;-71
2023/12/01 14:56:40;;;;;;;21.38;11.10;;;-0.20;96.20;;;;;;6267989;22;20057;-71
2023/12/01 14:59:26;;;;;;;22.58;12.10;;;-0.30;96.30;;;;;;6268181;22;20008;-71
2023/12/01 15:02:13;;;;;;;23.73;12.07;;;-0.30;96.30;;;;;;6247384;22;20036;-71
2023/12/01 15:04:59;;;;;;;24.25;11.73;;;-0.40;96.30;;;;;;6267395;22;20054;-71
2023/12/01 15:07:45;;;;;;;22.48;11.90;;;-0.50;96.30;;;;;;6269001;22;20008;-71
2023/12/01 15:10:30;;;;;;;24.15;12.35;;;-0.60;96.40;;;;;;6267871;22;20023;-71
2023/12/01 15:13:16;;;;;;;23.80;12.13;;;-0.70;96.40;;;;;;6266513;22;20020;-70
2023/12/01 15:16:03;;;;;;;23.55;12.30;;;-0.70;96.50;;;;;;6267429;22;20090;-71
2023/12/01 15:18:49;;;;;;;23.05;11.80;;;-0.80;96.60;;;;;;6267410;22;20011;-70
2023/12/01 15:21:35;;;;;;;21.25;11.95;;;-0.70;96.70;;;;;;6245632;22;21209;-70
2023/12/01 15:24:20;;;;;;;23.27;12.10;;;-0.80;96.70;;;;;;6269166;22;20026;-70
2023/12/01 15:27:06;;;;;;;25.25;11.68;;;-0.80;96.90;;;;;;6267555;22;20006;-70
2023/12/01 15:29:53;;;;;;;29.63;12.00;;;-0.80;96.90;;;;;;6266893;22;20424;-69
2023/12/01 15:32:39;;;;;;;21.88;12.15;;;-0.70;97.00;;;;;;6246036;22;20017;-69
2023/12/01 15:35:25;;;;;;;23.20;11.02;;;-0.70;96.90;;;;;;6269308;22;20039;-71
2023/12/01 15:38:11;;;;;;;22.38;11.35;;;-0.60;97.00;;;;;;6268574;22;20036;-70
2023/12/01 15:40:57;;;;;;;25.63;12.45;;;-0.60;97.20;;;;;;6269193;22;20019;-69
2023/12/01 15:43:42;;;;;;;21.85;12.75;;;-0.60;97.00;;;;;;6269109;22;20012;-69
2023/12/01 15:46:28;;;;;;;23.63;11.60;;;-0.80;96.90;;;;;;6248155;22;20528;-71
2023/12/01 15:49:15;;;;;;;23.77;11.80;;;-0.80;97.10;;;;;;6269528;22;20367;-72
2023/12/01 15:52:03;;;;;;;23.25;13.35;;;-0.80;97.20;;;;;;6267976;22;20070;-72
2023/12/01 15:54:50;;;;;;;24.88;11.98;;;-0.80;97.20;;;;;;6268346;22;20054;-71
2023/12/01 15:57:36;;;;;;;26.05;14.38;;;-0.80;97.20;;;;;;6268022;22;20151;-72
2023/12/01 16:00:22;;;;;;;25.75;13.23;;;-0.70;97.30;;;;;;6265865;22;20034;-70
2023/12/01 16:03:10;;;;;;;25.02;12.32;;;-0.70;97.30;;;;;;6268246;22;20012;-70
2023/12/01 16:05:56;;;;;;;26.30;12.77;;;-0.70;97.40;;;;;;6267277;22;20019;-70
2023/12/01 16:08:42;;;;;;;22.73;13.73;;;-0.70;97.40;;;;;;6267892;22;20099;-70
2023/12/01 16:11:27;;;;;;;25.27;13.55;;;-0.70;97.40;;;;;;6268100;22;20099;-70
2023/12/01 16:14:13;;;;;;;23.05;12.27;;;-0.70;97.50;;;;;;6269918;22;20015;-70
2023/12/01 16:16:59;;;;;;;25.25;13.75;;;-0.60;97.60;;;;;;6244572;22;20411;-70
2023/12/01 16:19:45;;;;;;;20.88;11.98;;;-0.60;97.50;;;;;;6267865;22;20024;-70
2023/12/01 16:22:31;;;;;;;25.90;12.52;;;-0.60;97.60;;;;;;6267605;22;20105;-69
2023/12/01 16:25:18;;;;;;;25.00;12.35;;;-0.60;97.60;;;;;;6268102;22;20011;-69
2023/12/01 16:28:04;;;;;;;17.10;10.93;;;-0.50;97.70;;;;;;6268216;22;20034;-73
2023/12/01 16:30:50;;;;;;;20.67;10.95;;;-0.40;97.70;;;;;;6267528;22;20090;-69
2023/12/01 16:33:37;;;;;;;21.67;11.55;;;-0.30;97.70;;;;;;6268239;22;20038;-71
2023/12/01 16:36:22;;;;;;;19.42;10.88;;;-0.30;97.70;;;;;;6267587;22;20008;-71
2023/12/01 16:39:08;;;;;;;24.02;11.88;;;-0.20;97.80;;;;;;6268465;22;20018;-71
2023/12/01 16:41:54;;;;;;;17.00;10.98;;;-0.20;97.70;;;;;;6266829;22;20031;-72
2023/12/01 16:44:40;;;;;;;17.92;10.55;;;-0.20;97.70;;;;;;6271890;22;20370;-70
2023/12/01 16:47:27;;;;;;;20.70;11.88;;;-0.20;97.80;;;;;;6269772;22;20034;-70
2023/12/01 16:50:13;;;;;;;21.17;11.70;;;-0.30;97.60;;;;;;6247060;22;20010;-66
2023/12/01 16:52:59;;;;;;;23.15;12.07;;;-0.30;97.70;;;;;;6269170;22;20490;-63
2023/12/01 16:55:45;;;;;;;19.55;11.15;;;-0.40;97.80;;;;;;6270339;22;20015;-64
2023/12/01 16:58:31;;;;;;;21.10;12.05;;;-0.30;97.90;;;;;;6270446;22;20467;-62
2023/12/01 17:01:17;;;;;;;25.33;13.77;;;-0.30;97.90;;;;;;6268928;22;20374;-62
2023/12/01 17:04:03;;;;;;;24.95;12.43;;;-0.20;97.90;;;;;;6266784;22;20033;-62
2023/12/01 17:06:49;;;;;;;23.30;13.10;;;-0.20;97.90;;;;;;6270791;22;20130;-62
2023/12/01 17:09:37;;;;;;;22.88;12.57;;;-0.10;98.00;;;;;;6270203;22;20537;-62
2023/12/01 17:12:23;;;;;;;23.00;12.80;;;-0.10;97.90;;;;;;6269804;22;20466;-66
2023/12/01 17:15:09;;;;;;;23.35;13.07;;;0.00;98.00;;;;;;6270922;22;20018;-66
2023/12/01 17:17:55;;;;;;;20.90;11.70;;;0.00;98.00;;;;;;6270982;22;20082;-66
2023/12/01 17:20:41;;;;;;;20.55;10.95;;;0.10;98.10;;;;;;6270666;22;20061;-65
2023/12/01 17:23:27;;;;;;;23.75;11.48;;;0.00;97.80;;;;;;6268334;22;20026;-62
2023/12/01 17:26:13;;;;;;;22.17;11.48;;;-0.10;97.90;;;;;;6261441;22;20026;-63